sensor_id;sensor_type;location;lat;lon;timestamp;pressure;altitude;pressure_sealevel;temperature;humidity
61676;BME280;47574;52.090;5.244;2023-07-13T00:00:54;101330.0;;;22.98;50.34
61676;BME280;47574;52.090;5.244;2023-07-13T00:02:30;101325.0;;;23.04;50.19
61676;BME280;47574;52.090;5.244;2023-07-13T00:05:42;101328.0;;;23.27;49.71
61676;BME280;47574;52.090;5.244;2023-07-13T00:07:18;101328.0;;;23.18;49.8
61676;BME280;47574;52.090;5.244;2023-07-13T00:08:54;101325.0;;;23.08;49.95
61676;BME280;47574;52.090;5.244;2023-07-13T00:10:31;101327.0;;;23.27;49.53
61676;BME280;47574;52.090;5.244;2023-07-13T00:14:04;101328.0;;;23.06;49.9
61676;BME280;47574;52.090;5.244;2023-07-13T00:15:40;101335.0;;;23.31;49.42
61676;BME280;47574;52.090;5.244;2023-07-13T00:17:16;101327.0;;;23.11;49.72
61676;BME280;47574;52.090;5.244;2023-07-13T00:18:52;101328.0;;;23.3;49.17
61676;BME280;47574;52.090;5.244;2023-07-13T00:22:04;101325.0;;;23.26;49.01
61676;BME280;47574;52.090;5.244;2023-07-13T00:23:41;101325.0;;;23.06;49.52
61676;BME280;47574;52.090;5.244;2023-07-13T00:25:18;101322.0;;;22.99;49.54
61676;BME280;47574;52.090;5.244;2023-07-13T00:28:32;101321.0;;;23.17;49.35
61676;BME280;47574;52.090;5.244;2023-07-13T00:30:09;101326.0;;;23.35;48.73
61676;BME280;47574;52.090;5.244;2023-07-13T00:31:46;101326.0;;;23.22;48.72
61676;BME280;47574;52.090;5.244;2023-07-13T00:34:59;101326.0;;;23.16;49.15
61676;BME280;47574;52.090;5.244;2023-07-13T00:36:35;101330.0;;;22.99;49.34
61676;BME280;47574;52.090;5.244;2023-07-13T00:38:11;101335.0;;;22.89;49.42
61676;BME280;47574;52.090;5.244;2023-07-13T00:39:47;101331.0;;;22.86;49.33
61676;BME280;47574;52.090;5.244;2023-07-13T00:43:00;101327.0;;;23.03;49.22
61676;BME280;47574;52.090;5.244;2023-07-13T00:44:35;101328.0;;;22.74;49.79
61676;BME280;47574;52.090;5.244;2023-07-13T00:46:16;101332.0;;;22.93;49.44
61676;BME280;47574;52.090;5.244;2023-07-13T00:49:36;101334.0;;;22.92;49.19
61676;BME280;47574;52.090;5.244;2023-07-13T00:51:13;101331.0;;;22.79;49.78
61676;BME280;47574;52.090;5.244;2023-07-13T00:52:53;101328.0;;;23.02;49.16
61676;BME280;47574;52.090;5.244;2023-07-13T00:54:33;101330.0;;;22.93;49.55
61676;BME280;47574;52.090;5.244;2023-07-13T00:57:51;101324.0;;;23.26;49.07
61676;BME280;47574;52.090;5.244;2023-07-13T00:59:28;101324.0;;;23.35;48.69
61676;BME280;47574;52.090;5.244;2023-07-13T01:01:05;101325.0;;;23.24;48.9
61676;BME280;47574;52.090;5.244;2023-07-13T01:04:23;101327.0;;;23.17;49.02
61676;BME280;47574;52.090;5.244;2023-07-13T01:06:00;101333.0;;;23.36;48.61
61676;BME280;47574;52.090;5.244;2023-07-13T01:07:36;101334.0;;;22.73;50.05
61676;BME280;47574;52.090;5.244;2023-07-13T01:09:14;101332.0;;;23.15;49.27
61676;BME280;47574;52.090;5.244;2023-07-13T01:12:29;101335.0;;;23.05;49.27
61676;BME280;47574;52.090;5.244;2023-07-13T01:14:05;101337.0;;;23.11;49.28
61676;BME280;47574;52.090;5.244;2023-07-13T01:15:42;101341.0;;;22.87;49.69
61676;BME280;47574;52.090;5.244;2023-07-13T01:18:56;101345.0;;;22.9;49.8
61676;BME280;47574;52.090;5.244;2023-07-13T01:20:34;101339.0;;;22.72;50.28
61676;BME280;47574;52.090;5.244;2023-07-13T01:22:13;101341.0;;;22.91;49.96
61676;BME280;47574;52.090;5.244;2023-07-13T01:23:51;101340.0;;;22.92;50.05
61676;BME280;47574;52.090;5.244;2023-07-13T01:27:06;101342.0;;;23.09;49.52
61676;BME280;47574;52.090;5.244;2023-07-13T01:28:42;101341.0;;;22.61;50.63
61676;BME280;47574;52.090;5.244;2023-07-13T01:30:19;101348.0;;;22.6;50.97
61676;BME280;47574;52.090;5.244;2023-07-13T01:33:31;101349.0;;;22.64;51.13
61676;BME280;47574;52.090;5.244;2023-07-13T01:35:07;101343.0;;;22.52;51.26
61676;BME280;47574;52.090;5.244;2023-07-13T01:36:43;101342.0;;;22.69;50.91
61676;BME280;47574;52.090;5.244;2023-07-13T01:38:21;101339.0;;;22.84;50.55
61676;BME280;47574;52.090;5.244;2023-07-13T01:41:35;101340.0;;;22.73;51.04
61676;BME280;47574;52.090;5.244;2023-07-13T01:43:11;101345.0;;;23.02;50.48
61676;BME280;47574;52.090;5.244;2023-07-13T01:44:48;101342.0;;;22.79;50.72
61676;BME280;47574;52.090;5.244;2023-07-13T01:48:00;101342.0;;;23.08;50.16
61676;BME280;47574;52.090;5.244;2023-07-13T01:49:37;101347.0;;;22.86;50.92
61676;BME280;47574;52.090;5.244;2023-07-13T01:51:13;101341.0;;;22.68;51.14
61676;BME280;47574;52.090;5.244;2023-07-13T01:54:25;101350.0;;;22.77;51.16
61676;BME280;47574;52.090;5.244;2023-07-13T01:56:01;101350.0;;;22.84;50.96
61676;BME280;47574;52.090;5.244;2023-07-13T01:57:37;101347.0;;;22.64;51.43
61676;BME280;47574;52.090;5.244;2023-07-13T02:00:51;101346.0;;;23.0;50.75
61676;BME280;47574;52.090;5.244;2023-07-13T02:02:28;101348.0;;;22.51;51.93
61676;BME280;47574;52.090;5.244;2023-07-13T02:04:04;101347.0;;;22.8;51.45
61676;BME280;47574;52.090;5.244;2023-07-13T02:05:40;101346.0;;;23.01;50.83
61676;BME280;47574;52.090;5.244;2023-07-13T02:08:53;101346.0;;;22.88;51.09
61676;BME280;47574;52.090;5.244;2023-07-13T02:10:30;101348.0;;;22.98;51.01
61676;BME280;47574;52.090;5.244;2023-07-13T02:12:06;101357.0;;;22.93;51.28
61676;BME280;47574;52.090;5.244;2023-07-13T02:16:55;101356.0;;;22.41;52.41
61676;BME280;47574;52.090;5.244;2023-07-13T02:18:31;101361.0;;;22.41;52.36
61676;BME280;47574;52.090;5.244;2023-07-13T02:21:44;101361.0;;;22.3;52.81
61676;BME280;47574;52.090;5.244;2023-07-13T02:23:20;101360.0;;;22.68;51.99
61676;BME280;47574;52.090;5.244;2023-07-13T02:24:57;101361.0;;;22.58;52.43
61676;BME280;47574;52.090;5.244;2023-07-13T02:26:33;101360.0;;;22.6;52.33
61676;BME280;47574;52.090;5.244;2023-07-13T02:29:46;101359.0;;;22.57;52.24
61676;BME280;47574;52.090;5.244;2023-07-13T02:31:22;101360.0;;;22.18;53.39
61676;BME280;47574;52.090;5.244;2023-07-13T02:32:58;101359.0;;;22.68;52.49
61676;BME280;47574;52.090;5.244;2023-07-13T02:36:12;101358.0;;;22.2;53.65
61676;BME280;47574;52.090;5.244;2023-07-13T02:37:49;101360.0;;;22.36;53.32
61676;BME280;47574;52.090;5.244;2023-07-13T02:39:25;101364.0;;;22.36;53.39
61676;BME280;47574;52.090;5.244;2023-07-13T02:42:37;101365.0;;;22.52;53.12
61676;BME280;47574;52.090;5.244;2023-07-13T02:44:14;101367.0;;;22.63;52.92
61676;BME280;47574;52.090;5.244;2023-07-13T02:45:50;101369.0;;;22.67;53.03
61676;BME280;47574;52.090;5.244;2023-07-13T02:47:26;101365.0;;;22.57;52.97
61676;BME280;47574;52.090;5.244;2023-07-13T02:50:40;101361.0;;;22.38;53.55
61676;BME280;47574;52.090;5.244;2023-07-13T02:52:16;101356.0;;;22.35;53.98
61676;BME280;47574;52.090;5.244;2023-07-13T02:53:52;101360.0;;;22.35;53.95
61676;BME280;47574;52.090;5.244;2023-07-13T02:57:05;101359.0;;;22.35;53.96
61676;BME280;47574;52.090;5.244;2023-07-13T02:58:41;101364.0;;;22.15;54.52
61676;BME280;47574;52.090;5.244;2023-07-13T03:00:18;101362.0;;;22.07;54.82
61676;BME280;47574;52.090;5.244;2023-07-13T03:03:30;101363.0;;;22.25;54.42
61676;BME280;47574;52.090;5.244;2023-07-13T03:05:06;101362.0;;;22.11;54.85
61676;BME280;47574;52.090;5.244;2023-07-13T03:06:43;101364.0;;;22.14;54.81
61676;BME280;47574;52.090;5.244;2023-07-13T03:08:19;101362.0;;;22.16;54.62
61676;BME280;47574;52.090;5.244;2023-07-13T03:11:33;101367.0;;;22.12;54.6
61676;BME280;47574;52.090;5.244;2023-07-13T03:13:09;101370.0;;;22.1;54.76
61676;BME280;47574;52.090;5.244;2023-07-13T03:14:45;101368.0;;;22.14;54.55
61676;BME280;47574;52.090;5.244;2023-07-13T03:17:58;101372.0;;;22.29;54.16
61676;BME280;47574;52.090;5.244;2023-07-13T03:19:34;101368.0;;;22.15;54.43
61676;BME280;47574;52.090;5.244;2023-07-13T03:21:10;101369.0;;;22.07;54.78
61676;BME280;47574;52.090;5.244;2023-07-13T03:24:23;101368.0;;;21.98;55.1
61676;BME280;47574;52.090;5.244;2023-07-13T03:26:04;101366.0;;;22.06;54.84
61676;BME280;47574;52.090;5.244;2023-07-13T03:27:41;101367.0;;;21.97;55.08
61676;BME280;47574;52.090;5.244;2023-07-13T03:29:17;101373.0;;;21.93;55.2
61676;BME280;47574;52.090;5.244;2023-07-13T03:32:35;101376.0;;;22.03;55.27
61676;BME280;47574;52.090;5.244;2023-07-13T03:34:11;101381.0;;;22.43;54.25
61676;BME280;47574;52.090;5.244;2023-07-13T03:35:47;101380.0;;;22.44;53.88
61676;BME280;47574;52.090;5.244;2023-07-13T03:39:01;101380.0;;;22.23;54.6
61676;BME280;47574;52.090;5.244;2023-07-13T03:40:38;101383.0;;;22.13;54.66
61676;BME280;47574;52.090;5.244;2023-07-13T03:42:14;101387.0;;;22.28;54.35
61676;BME280;47574;52.090;5.244;2023-07-13T03:43:51;101393.0;;;22.39;54.18
61676;BME280;47574;52.090;5.244;2023-07-13T03:47:04;101388.0;;;22.56;53.77
61676;BME280;47574;52.090;5.244;2023-07-13T03:48:40;101391.0;;;22.56;53.66
61676;BME280;47574;52.090;5.244;2023-07-13T03:50:16;101391.0;;;22.38;53.91
61676;BME280;47574;52.090;5.244;2023-07-13T03:53:28;101395.0;;;22.28;54.34
61676;BME280;47574;52.090;5.244;2023-07-13T03:55:05;101396.0;;;22.42;53.97
61676;BME280;47574;52.090;5.244;2023-07-13T03:56:41;101394.0;;;22.56;53.76
61676;BME280;47574;52.090;5.244;2023-07-13T04:00:13;101401.0;;;22.38;54.05
61676;BME280;47574;52.090;5.244;2023-07-13T04:01:50;101405.0;;;22.35;54.34
61676;BME280;47574;52.090;5.244;2023-07-13T04:03:27;101399.0;;;22.2;54.43
61676;BME280;47574;52.090;5.244;2023-07-13T04:05:04;101405.0;;;22.34;54.17
61676;BME280;47574;52.090;5.244;2023-07-13T04:08:16;101403.0;;;21.99;55.11
61676;BME280;47574;52.090;5.244;2023-07-13T04:09:52;101408.0;;;22.13;55.08
61676;BME280;47574;52.090;5.244;2023-07-13T04:11:29;101409.0;;;21.85;55.64
61676;BME280;47574;52.090;5.244;2023-07-13T04:13:08;101408.0;;;21.94;55.53
61676;BME280;47574;52.090;5.244;2023-07-13T04:16:20;101412.0;;;22.01;55.19
61676;BME280;47574;52.090;5.244;2023-07-13T04:17:57;101416.0;;;22.09;55.1
61676;BME280;47574;52.090;5.244;2023-07-13T04:19:34;101413.0;;;22.07;55.36
61676;BME280;47574;52.090;5.244;2023-07-13T04:22:48;101419.0;;;22.25;54.94
61676;BME280;47574;52.090;5.244;2023-07-13T04:24:24;101419.0;;;22.13;55.18
61676;BME280;47574;52.090;5.244;2023-07-13T04:26:00;101420.0;;;22.11;55.08
61676;BME280;47574;52.090;5.244;2023-07-13T04:29:12;101422.0;;;22.24;54.91
61676;BME280;47574;52.090;5.244;2023-07-13T04:30:49;101424.0;;;22.34;54.71
61676;BME280;47574;52.090;5.244;2023-07-13T04:32:25;101424.0;;;22.15;55.09
61676;BME280;47574;52.090;5.244;2023-07-13T04:35:38;101426.0;;;22.24;55.02
61676;BME280;47574;52.090;5.244;2023-07-13T04:37:15;101430.0;;;22.25;55.13
61676;BME280;47574;52.090;5.244;2023-07-13T04:38:51;101432.0;;;22.31;54.82
61676;BME280;47574;52.090;5.244;2023-07-13T04:40:28;101427.0;;;22.2;55.18
61676;BME280;47574;52.090;5.244;2023-07-13T04:43:41;101434.0;;;21.9;55.94
61676;BME280;47574;52.090;5.244;2023-07-13T04:45:18;101430.0;;;21.89;56.28
61676;BME280;47574;52.090;5.244;2023-07-13T04:46:54;101430.0;;;22.16;55.66
61676;BME280;47574;52.090;5.244;2023-07-13T04:50:07;101432.0;;;22.01;55.73
61676;BME280;47574;52.090;5.244;2023-07-13T04:51:44;101427.0;;;22.07;55.84
61676;BME280;47574;52.090;5.244;2023-07-13T04:53:20;101433.0;;;22.09;55.7
61676;BME280;47574;52.090;5.244;2023-07-13T04:56:32;101438.0;;;22.41;55.22
61676;BME280;47574;52.090;5.244;2023-07-13T04:58:09;101432.0;;;22.16;55.78
61676;BME280;47574;52.090;5.244;2023-07-13T04:59:45;101440.0;;;22.43;55.24
61676;BME280;47574;52.090;5.244;2023-07-13T05:01:21;101441.0;;;22.07;55.91
61676;BME280;47574;52.090;5.244;2023-07-13T05:04:34;101440.0;;;22.21;55.81
61676;BME280;47574;52.090;5.244;2023-07-13T05:06:10;101436.0;;;22.22;55.67
61676;BME280;47574;52.090;5.244;2023-07-13T05:07:46;101441.0;;;22.44;55.22
61676;BME280;47574;52.090;5.244;2023-07-13T05:10:59;101445.0;;;22.38;55.63
61676;BME280;47574;52.090;5.244;2023-07-13T05:12:36;101445.0;;;22.18;56.01
61676;BME280;47574;52.090;5.244;2023-07-13T05:14:12;101447.0;;;22.23;56.01
61676;BME280;47574;52.090;5.244;2023-07-13T05:17:32;101446.0;;;22.4;55.8
61676;BME280;47574;52.090;5.244;2023-07-13T05:19:10;101444.0;;;22.35;55.9
61676;BME280;47574;52.090;5.244;2023-07-13T05:20:46;101443.0;;;22.45;55.82
61676;BME280;47574;52.090;5.244;2023-07-13T05:22:23;101445.0;;;22.64;55.33
61676;BME280;47574;52.090;5.244;2023-07-13T05:25:35;101447.0;;;22.73;55.04
61676;BME280;47574;52.090;5.244;2023-07-13T05:27:11;101449.0;;;22.51;55.57
61676;BME280;47574;52.090;5.244;2023-07-13T05:28:47;101452.0;;;22.55;55.49
61676;BME280;47574;52.090;5.244;2023-07-13T05:31:59;101455.0;;;22.59;55.35
61676;BME280;47574;52.090;5.244;2023-07-13T05:33:36;101457.0;;;22.47;55.91
61676;BME280;47574;52.090;5.244;2023-07-13T05:35:12;101457.0;;;22.48;56.14
61676;BME280;47574;52.090;5.244;2023-07-13T05:38:25;101461.0;;;22.05;57.16
61676;BME280;47574;52.090;5.244;2023-07-13T05:40:01;101463.0;;;22.0;57.59
61676;BME280;47574;52.090;5.244;2023-07-13T05:41:37;101463.0;;;22.04;57.62
61676;BME280;47574;52.090;5.244;2023-07-13T05:43:14;101465.0;;;22.23;57.25
61676;BME280;47574;52.090;5.244;2023-07-13T05:46:28;101459.0;;;22.42;56.75
61676;BME280;47574;52.090;5.244;2023-07-13T05:48:04;101461.0;;;22.55;56.53
61676;BME280;47574;52.090;5.244;2023-07-13T05:49:40;101464.0;;;22.45;56.82
61676;BME280;47574;52.090;5.244;2023-07-13T05:52:53;101466.0;;;22.36;56.95
61676;BME280;47574;52.090;5.244;2023-07-13T05:54:29;101470.0;;;22.3;57.29
61676;BME280;47574;52.090;5.244;2023-07-13T05:56:05;101471.0;;;22.48;56.85
61676;BME280;47574;52.090;5.244;2023-07-13T05:59:17;101476.0;;;22.93;55.87
61676;BME280;47574;52.090;5.244;2023-07-13T06:00:59;101480.0;;;22.71;56.39
61676;BME280;47574;52.090;5.244;2023-07-13T06:02:36;101485.0;;;22.43;57.26
61676;BME280;47574;52.090;5.244;2023-07-13T06:04:12;101484.0;;;22.81;56.37
61676;BME280;47574;52.090;5.244;2023-07-13T06:07:25;101487.0;;;22.61;56.81
61676;BME280;47574;52.090;5.244;2023-07-13T06:09:01;101489.0;;;22.89;56.13
61676;BME280;47574;52.090;5.244;2023-07-13T06:10:38;101494.0;;;22.78;56.4
61676;BME280;47574;52.090;5.244;2023-07-13T06:13:50;101498.0;;;23.0;56.09
61676;BME280;47574;52.090;5.244;2023-07-13T06:15:27;101495.0;;;23.11;55.77
61676;BME280;47574;52.090;5.244;2023-07-13T06:17:04;101499.0;;;22.79;56.35
61676;BME280;47574;52.090;5.244;2023-07-13T06:18:41;101505.0;;;23.31;55.39
61676;BME280;47574;52.090;5.244;2023-07-13T06:21:54;101508.0;;;22.96;56.19
61676;BME280;47574;52.090;5.244;2023-07-13T06:23:30;101508.0;;;23.09;55.81
61676;BME280;47574;52.090;5.244;2023-07-13T06:25:07;101509.0;;;22.95;56.21
61676;BME280;47574;52.090;5.244;2023-07-13T06:28:19;101512.0;;;22.73;56.8
61676;BME280;47574;52.090;5.244;2023-07-13T06:29:55;101513.0;;;22.89;56.5
61676;BME280;47574;52.090;5.244;2023-07-13T06:31:31;101514.0;;;22.7;57.0
61676;BME280;47574;52.090;5.244;2023-07-13T06:34:43;101515.0;;;23.27;55.65
61676;BME280;47574;52.090;5.244;2023-07-13T06:36:19;101521.0;;;23.01;56.26
61676;BME280;47574;52.090;5.244;2023-07-13T06:37:55;101515.0;;;22.89;56.46
61676;BME280;47574;52.090;5.244;2023-07-13T06:41:09;101511.0;;;22.52;57.31
61676;BME280;47574;52.090;5.244;2023-07-13T06:42:45;101517.0;;;22.49;57.45
61676;BME280;47574;52.090;5.244;2023-07-13T06:44:21;101514.0;;;22.77;56.73
61676;BME280;47574;52.090;5.244;2023-07-13T06:45:57;101517.0;;;23.15;55.96
61676;BME280;47574;52.090;5.244;2023-07-13T06:49:10;101517.0;;;22.97;56.25
61676;BME280;47574;52.090;5.244;2023-07-13T06:50:48;101520.0;;;23.13;56.01
61676;BME280;47574;52.090;5.244;2023-07-13T06:52:25;101514.0;;;22.67;56.9
61676;BME280;47574;52.090;5.244;2023-07-13T06:55:37;101523.0;;;22.94;56.69
61676;BME280;47574;52.090;5.244;2023-07-13T06:57:14;101530.0;;;23.2;56.72
61676;BME280;47574;52.090;5.244;2023-07-13T06:58:50;101530.0;;;23.04;57.23
61676;BME280;47574;52.090;5.244;2023-07-13T07:02:03;101533.0;;;23.16;56.61
61676;BME280;47574;52.090;5.244;2023-07-13T07:03:40;101534.0;;;23.18;56.94
61676;BME280;47574;52.090;5.244;2023-07-13T07:05:16;101541.0;;;23.21;57.05
61676;BME280;47574;52.090;5.244;2023-07-13T07:06:52;101537.0;;;23.3;57.14
61676;BME280;47574;52.090;5.244;2023-07-13T07:10:05;101537.0;;;22.87;57.55
61676;BME280;47574;52.090;5.244;2023-07-13T07:11:41;101544.0;;;22.84;58.05
61676;BME280;47574;52.090;5.244;2023-07-13T07:13:18;101549.0;;;22.79;58.54
61676;BME280;47574;52.090;5.244;2023-07-13T07:16:31;101544.0;;;22.92;58.96
61676;BME280;47574;52.090;5.244;2023-07-13T07:18:07;101547.0;;;22.98;59.18
61676;BME280;47574;52.090;5.244;2023-07-13T07:19:43;101547.0;;;22.63;59.81
61676;BME280;47574;52.090;5.244;2023-07-13T07:22:55;101555.0;;;23.02;59.35
61676;BME280;47574;52.090;5.244;2023-07-13T07:24:31;101555.0;;;22.68;59.99
61676;BME280;47574;52.090;5.244;2023-07-13T07:26:08;101553.0;;;22.4;60.37
61676;BME280;47574;52.090;5.244;2023-07-13T07:27:44;101555.0;;;23.06;59.36
61676;BME280;47574;52.090;5.244;2023-07-13T07:30:58;101559.0;;;23.17;59.37
61676;BME280;47574;52.090;5.244;2023-07-13T07:32:34;101555.0;;;23.2;59.31
61676;BME280;47574;52.090;5.244;2023-07-13T07:34:10;101555.0;;;23.41;59.17
61676;BME280;47574;52.090;5.244;2023-07-13T07:37:23;101555.0;;;23.18;59.49
61676;BME280;47574;52.090;5.244;2023-07-13T07:39:00;101548.0;;;23.53;59.29
61676;BME280;47574;52.090;5.244;2023-07-13T07:40:36;101537.0;;;23.42;59.44
61676;BME280;47574;52.090;5.244;2023-07-13T07:43:49;101544.0;;;23.34;58.8
61676;BME280;47574;52.090;5.244;2023-07-13T07:45:26;101537.0;;;23.18;59.22
61676;BME280;47574;52.090;5.244;2023-07-13T07:47:03;101537.0;;;22.78;59.29
61676;BME280;47574;52.090;5.244;2023-07-13T07:48:39;101542.0;;;23.17;59.65
61676;BME280;47574;52.090;5.244;2023-07-13T07:51:52;101541.0;;;23.11;59.0
61676;BME280;47574;52.090;5.244;2023-07-13T07:53:28;101547.0;;;23.54;58.63
61676;BME280;47574;52.090;5.244;2023-07-13T07:55:06;101548.0;;;23.86;58.48
61676;BME280;47574;52.090;5.244;2023-07-13T07:58:20;101551.0;;;23.24;58.99
61676;BME280;47574;52.090;5.244;2023-07-13T07:59:56;101547.0;;;23.51;57.98
61676;BME280;47574;52.090;5.244;2023-07-13T08:01:32;101549.0;;;23.32;58.1
61676;BME280;47574;52.090;5.244;2023-07-13T08:04:46;101558.0;;;23.18;58.07
61676;BME280;47574;52.090;5.244;2023-07-13T08:06:22;101565.0;;;23.23;58.22
61676;BME280;47574;52.090;5.244;2023-07-13T08:08:00;101556.0;;;23.25;57.4
61676;BME280;47574;52.090;5.244;2023-07-13T08:09:36;101544.0;;;22.99;57.37
61676;BME280;47574;52.090;5.244;2023-07-13T08:12:48;101540.0;;;22.82;58.67
61676;BME280;47574;52.090;5.244;2023-07-13T08:14:25;101541.0;;;22.91;57.58
61676;BME280;47574;52.090;5.244;2023-07-13T08:16:03;101547.0;;;23.31;57.37
61676;BME280;47574;52.090;5.244;2023-07-13T08:19:17;101542.0;;;22.86;57.43
61676;BME280;47574;52.090;5.244;2023-07-13T08:20:53;101550.0;;;23.47;57.3
61676;BME280;47574;52.090;5.244;2023-07-13T08:22:29;101552.0;;;23.83;55.89
61676;BME280;47574;52.090;5.244;2023-07-13T08:25:43;101557.0;;;24.07;55.4
61676;BME280;47574;52.090;5.244;2023-07-13T08:27:28;101552.0;;;23.45;56.02
61676;BME280;47574;52.090;5.244;2023-07-13T08:29:04;101559.0;;;23.05;55.29
61676;BME280;47574;52.090;5.244;2023-07-13T08:30:40;101561.0;;;23.31;55.07
61676;BME280;47574;52.090;5.244;2023-07-13T08:33:55;101558.0;;;23.54;52.84
61676;BME280;47574;52.090;5.244;2023-07-13T08:35:32;101559.0;;;23.36;49.98
61676;BME280;47574;52.090;5.244;2023-07-13T08:37:08;101559.0;;;23.16;50.5
61676;BME280;47574;52.090;5.244;2023-07-13T08:40:25;101561.0;;;23.08;50.56
61676;BME280;47574;52.090;5.244;2023-07-13T08:42:04;101566.0;;;22.89;52.31
61676;BME280;47574;52.090;5.244;2023-07-13T08:43:50;101570.0;;;22.85;53.28
61676;BME280;47574;52.090;5.244;2023-07-13T08:45:40;101573.0;;;22.94;53.83
61676;BME280;47574;52.090;5.244;2023-07-13T08:47:20;101582.0;;;23.01;53.41
61676;BME280;47574;52.090;5.244;2023-07-13T08:50:49;101573.0;;;22.95;53.37
61676;BME280;47574;52.090;5.244;2023-07-13T08:52:36;101573.0;;;23.35;53.46
61676;BME280;47574;52.090;5.244;2023-07-13T08:54:22;101576.0;;;23.45;53.32
61676;BME280;47574;52.090;5.244;2023-07-13T08:55:59;101575.0;;;23.52;53.29
61676;BME280;47574;52.090;5.244;2023-07-13T08:59:19;101578.0;;;23.54;53.4
61676;BME280;47574;52.090;5.244;2023-07-13T09:01:03;101575.0;;;23.48;53.49
61676;BME280;47574;52.090;5.244;2023-07-13T09:02:46;101575.0;;;23.32;53.64
61676;BME280;47574;52.090;5.244;2023-07-13T09:04:32;101577.0;;;23.17;54.06
61676;BME280;47574;52.090;5.244;2023-07-13T09:06:12;101572.0;;;23.38;53.34
61676;BME280;47574;52.090;5.244;2023-07-13T09:09:55;101568.0;;;23.73;53.22
61676;BME280;47574;52.090;5.244;2023-07-13T09:11:50;101570.0;;;23.68;52.88
61676;BME280;47574;52.090;5.244;2023-07-13T09:13:35;101572.0;;;23.66;52.81
61676;BME280;47574;52.090;5.244;2023-07-13T09:15:25;101577.0;;;23.46;52.77
61676;BME280;47574;52.090;5.244;2023-07-13T09:17:08;101574.0;;;23.35;53.17
61676;BME280;47574;52.090;5.244;2023-07-13T09:18:49;101571.0;;;23.35;53.73
61676;BME280;47574;52.090;5.244;2023-07-13T09:22:17;101573.0;;;23.91;52.85
61676;BME280;47574;52.090;5.244;2023-07-13T09:24:13;101566.0;;;23.78;52.61
61676;BME280;47574;52.090;5.244;2023-07-13T09:26:05;101567.0;;;23.88;52.08
61676;BME280;47574;52.090;5.244;2023-07-13T09:27:44;101572.0;;;23.84;52.56
61676;BME280;47574;52.090;5.244;2023-07-13T09:29:27;101578.0;;;23.95;52.49
61676;BME280;47574;52.090;5.244;2023-07-13T09:32:51;101583.0;;;23.77;51.73
61676;BME280;47574;52.090;5.244;2023-07-13T09:34:28;101583.0;;;24.09;51.0
61676;BME280;47574;52.090;5.244;2023-07-13T09:36:18;101577.0;;;24.19;50.38
61676;BME280;47574;52.090;5.244;2023-07-13T09:38:04;101576.0;;;24.05;50.07
61676;BME280;47574;52.090;5.244;2023-07-13T09:39:46;101580.0;;;24.06;50.52
61676;BME280;47574;52.090;5.244;2023-07-13T09:43:11;101607.0;;;24.1;50.94
61676;BME280;47574;52.090;5.244;2023-07-13T09:44:53;101603.0;;;24.19;52.78
61676;BME280;47574;52.090;5.244;2023-07-13T09:46:30;101603.0;;;23.51;51.7
61676;BME280;47574;52.090;5.244;2023-07-13T09:48:11;101605.0;;;23.53;52.57
61676;BME280;47574;52.090;5.244;2023-07-13T09:51:31;101603.0;;;23.45;52.13
61676;BME280;47574;52.090;5.244;2023-07-13T09:53:12;101599.0;;;23.27;52.91
61676;BME280;47574;52.090;5.244;2023-07-13T09:54:50;101597.0;;;23.31;53.61
61676;BME280;47574;52.090;5.244;2023-07-13T09:56:29;101599.0;;;23.63;53.44
61676;BME280;47574;52.090;5.244;2023-07-13T09:59:49;101600.0;;;23.55;53.37
61676;BME280;47574;52.090;5.244;2023-07-13T10:01:33;101602.0;;;23.7;53.82
61676;BME280;47574;52.090;5.244;2023-07-13T10:03:17;101595.0;;;23.65;53.72
61676;BME280;47574;52.090;5.244;2023-07-13T10:04:57;101602.0;;;23.98;53.38
61676;BME280;47574;52.090;5.244;2023-07-13T10:08:21;101602.0;;;24.0;52.65
61676;BME280;47574;52.090;5.244;2023-07-13T10:09:59;101608.0;;;24.28;51.43
61676;BME280;47574;52.090;5.244;2023-07-13T10:11:37;101605.0;;;24.31;51.1
61676;BME280;47574;52.090;5.244;2023-07-13T10:13:35;101606.0;;;24.67;50.28
61676;BME280;47574;52.090;5.244;2023-07-13T10:15:14;101611.0;;;24.71;51.29
61676;BME280;47574;52.090;5.244;2023-07-13T10:18:41;101607.0;;;24.65;51.1
61676;BME280;47574;52.090;5.244;2023-07-13T10:20:21;101611.0;;;24.75;51.16
61676;BME280;47574;52.090;5.244;2023-07-13T10:22:00;101606.0;;;24.61;51.09
61676;BME280;47574;52.090;5.244;2023-07-13T10:23:38;101614.0;;;24.74;49.61
61676;BME280;47574;52.090;5.244;2023-07-13T10:26:57;101619.0;;;24.47;49.24
61676;BME280;47574;52.090;5.244;2023-07-13T10:28:52;101620.0;;;25.06;49.01
61676;BME280;47574;52.090;5.244;2023-07-13T10:30:33;101621.0;;;24.39;49.08
61676;BME280;47574;52.090;5.244;2023-07-13T10:32:14;101626.0;;;24.32;48.25
61676;BME280;47574;52.090;5.244;2023-07-13T10:35:29;101635.0;;;24.27;49.46
61676;BME280;47574;52.090;5.244;2023-07-13T10:37:07;101634.0;;;24.64;48.81
61676;BME280;47574;52.090;5.244;2023-07-13T10:38:52;101630.0;;;24.52;48.79
61676;BME280;47574;52.090;5.244;2023-07-13T10:40:34;101630.0;;;24.76;47.74
61676;BME280;47574;52.090;5.244;2023-07-13T10:44:18;101630.0;;;24.93;47.36
61676;BME280;47574;52.090;5.244;2023-07-13T10:45:56;101628.0;;;25.02;46.9
61676;BME280;47574;52.090;5.244;2023-07-13T10:47:33;101627.0;;;24.78;45.91
61676;BME280;47574;52.090;5.244;2023-07-13T10:49:10;101630.0;;;24.17;45.94
61676;BME280;47574;52.090;5.244;2023-07-13T10:50:51;101630.0;;;24.45;45.55
61676;BME280;47574;52.090;5.244;2023-07-13T10:54:28;101632.0;;;25.13;45.18
61676;BME280;47574;52.090;5.244;2023-07-13T10:56:15;101630.0;;;25.13;44.62
61676;BME280;47574;52.090;5.244;2023-07-13T10:58:00;101626.0;;;25.03;45.73
61676;BME280;47574;52.090;5.244;2023-07-13T10:59:38;101626.0;;;25.08;45.53
61676;BME280;47574;52.090;5.244;2023-07-13T11:01:16;101620.0;;;24.74;46.17
61676;BME280;47574;52.090;5.244;2023-07-13T11:04:41;101622.0;;;25.37;46.33
61676;BME280;47574;52.090;5.244;2023-07-13T11:06:32;101622.0;;;24.77;47.1
61676;BME280;47574;52.090;5.244;2023-07-13T11:08:16;101624.0;;;25.16;46.42